createdAt,value
2023-03-13T00:02:34.860Z,7.3
2023-03-13T00:07:34.823Z,7.3
2023-03-13T00:12:34.843Z,7.4
2023-03-13T00:17:34.817Z,7.4
2023-03-13T00:22:34.814Z,7.4
2023-03-13T00:27:34.823Z,7.4
2023-03-13T00:32:34.882Z,7.5
2023-03-13T00:37:34.813Z,7.5
2023-03-13T00:42:34.810Z,7.6
2023-03-13T00:47:34.812Z,7.6
2023-03-13T00:52:34.844Z,7.7
2023-03-13T00:57:34.817Z,7.8
2023-03-13T01:02:34.978Z,7.8
2023-03-13T01:07:34.824Z,7.8
2023-03-13T01:12:34.875Z,7.8
2023-03-13T01:17:34.811Z,7.9
2023-03-13T01:22:34.886Z,7.9
2023-03-13T01:27:34.821Z,8
2023-03-13T01:32:34.871Z,8
2023-03-13T01:37:34.853Z,8
2023-03-13T01:42:34.818Z,8.1
2023-03-13T01:47:34.806Z,8.1
2023-03-13T01:52:34.831Z,8.1
2023-03-13T01:57:34.815Z,8.1
2023-03-13T02:02:34.832Z,8.2
2023-03-13T02:07:34.801Z,8.2
2023-03-13T02:12:34.846Z,8.3
2023-03-13T02:17:34.801Z,8.3
2023-03-13T02:22:34.801Z,8.4
2023-03-13T02:27:34.789Z,8.4
2023-03-13T02:32:35.005Z,8.4
2023-03-13T02:37:34.811Z,8.5
2023-03-13T02:42:34.779Z,8.5
2023-03-13T02:47:34.804Z,8.5
2023-03-13T02:52:34.810Z,8.5
2023-03-13T02:57:34.852Z,8.5
2023-03-13T03:02:34.784Z,8.5
2023-03-13T03:07:34.791Z,8.6
2023-03-13T03:12:34.803Z,8.6
2023-03-13T03:17:34.782Z,8.6
2023-03-13T03:22:34.789Z,8.6
2023-03-13T03:27:34.795Z,8.7
2023-03-13T03:32:35.078Z,8.6
2023-03-13T03:37:34.782Z,8.8
2023-03-13T03:42:34.778Z,8.7
2023-03-13T03:47:34.779Z,8.7
2023-03-13T03:52:35.026Z,8.7
2023-03-13T03:57:34.774Z,8.7
2023-03-13T04:02:34.838Z,8.7
2023-03-13T04:07:34.778Z,8.8
2023-03-13T04:12:34.812Z,8.8
2023-03-13T04:17:34.776Z,8.8
2023-03-13T04:22:34.768Z,8.9
2023-03-13T04:27:34.769Z,8.9
2023-03-13T04:32:34.800Z,8.9
2023-03-13T04:37:34.766Z,8.9
2023-03-13T04:42:34.775Z,9
2023-03-13T04:47:34.770Z,9
2023-03-13T04:52:34.904Z,9
2023-03-13T04:57:34.775Z,9
2023-03-13T05:02:34.783Z,9
2023-03-13T05:07:34.764Z,9
2023-03-13T05:12:34.811Z,9
2023-03-13T05:17:34.765Z,9
2023-03-13T05:22:34.805Z,9
2023-03-13T05:27:34.767Z,9
2023-03-13T05:32:34.922Z,9
2023-03-13T05:37:42.817Z,9
2023-03-13T05:42:34.784Z,9
2023-03-13T05:47:34.806Z,9
2023-03-13T05:52:34.804Z,9
2023-03-13T05:57:34.791Z,9
2023-03-13T06:02:34.792Z,9
2023-03-13T06:07:34.782Z,9.1
2023-03-13T06:12:34.812Z,9
2023-03-13T06:17:34.802Z,9.1
2023-03-13T06:22:34.798Z,9.1
2023-03-13T06:27:34.801Z,9.1
2023-03-13T06:32:37.047Z,9.1
2023-03-13T06:37:34.839Z,9.1
2023-03-13T06:42:34.772Z,9.1
2023-03-13T06:47:34.774Z,9.2
2023-03-13T06:52:43.235Z,9.2
2023-03-13T06:57:34.766Z,9.2
2023-03-13T07:02:34.777Z,9.2
2023-03-13T07:07:34.773Z,9.2
2023-03-13T07:12:34.998Z,9.2
2023-03-13T07:17:35.059Z,9.2
2023-03-13T07:22:34.782Z,9.2
2023-03-13T07:27:34.803Z,9.2
2023-03-13T07:32:34.828Z,9.2
2023-03-13T07:37:34.779Z,9.3
2023-03-13T07:42:34.777Z,9.3
2023-03-13T07:47:34.794Z,9.3
2023-03-13T07:52:34.788Z,9.3
2023-03-13T07:57:34.779Z,9.3
2023-03-13T08:02:34.868Z,9.3
2023-03-13T08:07:34.794Z,9.4
2023-03-13T08:12:34.839Z,9.4
2023-03-13T08:17:34.800Z,9.4
2023-03-13T08:22:34.854Z,9.4
2023-03-13T08:27:34.839Z,9.4
2023-03-13T08:32:34.947Z,9.4
2023-03-13T08:37:34.758Z,9.5
2023-03-13T08:42:34.767Z,9.5
2023-03-13T08:47:34.797Z,9.5
2023-03-13T08:52:34.805Z,9.6
2023-03-13T08:57:34.784Z,9.6
2023-03-13T09:02:34.819Z,9.6
2023-03-13T09:07:34.787Z,9.7
2023-03-13T09:12:34.815Z,9.7
2023-03-13T09:17:34.762Z,9.8
2023-03-13T09:22:34.768Z,9.8
2023-03-13T09:27:34.757Z,9.9
2023-03-13T09:32:34.976Z,9.9
2023-03-13T09:37:34.770Z,9.9
2023-03-13T09:42:34.773Z,10
2023-03-13T09:47:34.786Z,10
2023-03-13T09:52:34.829Z,10
2023-03-13T09:57:34.787Z,10.1
2023-03-13T10:02:34.844Z,10
2023-03-13T10:07:34.747Z,10.1
2023-03-13T10:12:34.770Z,10.1
2023-03-13T10:17:35.027Z,10.2
2023-03-13T10:22:34.761Z,10.3
2023-03-13T10:27:35.034Z,10.3
2023-03-13T10:32:34.793Z,10.4
2023-03-13T10:37:34.737Z,10.5
2023-03-13T10:42:42.824Z,10.5
2023-03-13T10:47:34.728Z,10.6
2023-03-13T10:52:34.762Z,10.7
2023-03-13T10:57:34.791Z,10.8
2023-03-13T11:02:34.848Z,10.9
2023-03-13T11:07:34.789Z,11
2023-03-13T11:12:34.959Z,11.1
2023-03-13T11:17:34.795Z,11.3
2023-03-13T11:22:35.065Z,11.5
2023-03-13T11:27:34.813Z,11.7
2023-03-13T11:32:34.849Z,11.8
2023-03-13T11:37:34.809Z,11.9
2023-03-13T11:42:34.778Z,12
2023-03-13T11:47:34.787Z,12.1
2023-03-13T11:52:34.820Z,12.2
2023-03-13T11:57:35.098Z,12.2
2023-03-13T12:02:34.896Z,12.3
2023-03-13T12:07:34.783Z,12.4
2023-03-13T12:12:34.819Z,12.5
2023-03-13T12:17:43.465Z,12.7
2023-03-13T12:22:34.769Z,12.8
2023-03-13T12:27:35.083Z,13
2023-03-13T12:32:35.881Z,13.1
2023-03-13T12:37:34.794Z,13.2
2023-03-13T12:42:34.802Z,13.2
2023-03-13T12:47:34.780Z,13.3
2023-03-13T12:52:35.009Z,13.4
2023-03-13T12:57:34.834Z,13.5
2023-03-13T13:02:34.821Z,13.8
2023-03-13T13:07:34.795Z,14
2023-03-13T13:12:34.811Z,14.3
2023-03-13T13:17:34.779Z,14.5
2023-03-13T13:22:34.879Z,14.6
2023-03-13T13:27:34.838Z,14.8
2023-03-13T13:32:34.870Z,15
2023-03-13T13:37:34.811Z,15.3
2023-03-13T13:42:34.965Z,15.5
2023-03-13T13:47:35.023Z,15.7
2023-03-13T13:52:34.916Z,15.9
2023-03-13T13:57:34.905Z,16
2023-03-13T14:02:34.985Z,16
2023-03-13T14:07:34.967Z,16
2023-03-13T14:12:34.999Z,16
2023-03-13T14:17:34.988Z,16.1
2023-03-13T14:22:35.124Z,16
2023-03-13T14:27:35.188Z,16
2023-03-13T14:32:35.346Z,16.1
2023-03-13T14:37:35.233Z,16.1
2023-03-13T14:42:35.283Z,16
2023-03-13T14:47:35.335Z,16.1
2023-03-13T14:52:35.576Z,16.1
2023-03-13T14:57:35.395Z,16.2
2023-03-13T15:02:35.528Z,16.4
2023-03-13T15:07:35.412Z,16.6
2023-03-13T15:12:35.678Z,16.8
2023-03-13T15:17:35.522Z,17
2023-03-13T15:22:35.584Z,17.1
2023-03-13T15:27:35.652Z,17.2
2023-03-13T15:32:35.657Z,17.2
2023-03-13T15:37:35.566Z,17.2
2023-03-13T15:42:35.564Z,17
2023-03-13T15:47:35.577Z,16.9
2023-03-13T15:52:35.617Z,16.7
2023-03-13T15:57:35.645Z,16.7
2023-03-13T16:02:35.638Z,16.7
2023-03-13T16:07:35.638Z,16.6
2023-03-13T16:12:35.750Z,16.6
2023-03-13T16:17:35.596Z,16.5
2023-03-13T16:22:35.633Z,16.4
2023-03-13T16:27:35.775Z,16.4
2023-03-13T16:32:36.024Z,16.4
2023-03-13T16:37:35.911Z,16.3
2023-03-13T16:42:35.916Z,16.3
2023-03-13T16:47:43.100Z,16.3
2023-03-13T16:52:35.990Z,16.3
2023-03-13T16:57:36.028Z,16.3
2023-03-13T17:02:36.164Z,16.2
2023-03-13T17:07:35.989Z,16.3
2023-03-13T17:12:36.059Z,16.2
2023-03-13T17:17:36.164Z,16.2
2023-03-13T17:22:36.076Z,16.2
2023-03-13T17:27:36.044Z,16.2
2023-03-13T17:32:36.127Z,16.1
2023-03-13T17:37:36.060Z,16.1
2023-03-13T17:42:36.056Z,16.1
2023-03-13T17:47:36.085Z,16
2023-03-13T17:52:36.325Z,16
2023-03-13T17:57:36.158Z,16
2023-03-13T18:02:36.156Z,15.9
2023-03-13T18:07:36.253Z,15.9
2023-03-13T18:12:36.216Z,15.8
2023-03-13T18:17:36.193Z,15.8
2023-03-13T18:22:36.247Z,15.8
2023-03-13T18:27:36.252Z,15.7
2023-03-13T18:32:36.340Z,15.7
2023-03-13T18:37:36.256Z,15.7
2023-03-13T18:42:36.274Z,15.7
2023-03-13T18:47:36.499Z,15.7
2023-03-13T18:52:36.381Z,15.6
2023-03-13T18:57:36.386Z,15.7
2023-03-13T19:02:36.503Z,15.6
2023-03-13T19:07:36.496Z,15.6
2023-03-13T19:12:36.529Z,15.6
2023-03-13T19:17:36.518Z,15.6
2023-03-13T19:22:36.523Z,15.5
2023-03-13T19:27:36.534Z,15.5
2023-03-13T19:32:36.648Z,15.5
2023-03-13T19:37:36.627Z,15.5
2023-03-13T19:42:36.616Z,15.5
2023-03-13T19:47:36.673Z,15.5
2023-03-13T19:52:36.692Z,15.5
2023-03-13T19:57:36.734Z,15.6
2023-03-13T20:02:36.736Z,15.5
2023-03-13T20:07:36.697Z,15.5
2023-03-13T20:12:36.684Z,15.5
2023-03-13T20:17:36.681Z,15.5
2023-03-13T20:22:36.807Z,15.4
2023-03-13T20:27:36.880Z,15.4
2023-03-13T20:32:39.413Z,15.4
2023-03-13T20:37:36.877Z,15.3
2023-03-13T20:42:36.917Z,15.3
2023-03-13T20:47:36.928Z,15.3
2023-03-13T20:52:36.985Z,15.3
2023-03-13T20:57:37.108Z,15.2
2023-03-13T21:02:37.078Z,15.1
2023-03-13T21:07:37.171Z,15.1
2023-03-13T21:12:37.314Z,15.1
2023-03-13T21:17:37.315Z,15.1
2023-03-13T21:22:37.297Z,15.1
2023-03-13T21:27:37.119Z,15
2023-03-13T21:32:37.126Z,15
2023-03-13T21:37:37.118Z,15
2023-03-13T21:42:37.119Z,15
2023-03-13T21:47:37.248Z,15
2023-03-13T21:52:38.400Z,15
2023-03-13T21:57:37.093Z,14.9
2023-03-13T22:02:37.101Z,14.9
2023-03-13T22:07:37.224Z,14.9
2023-03-13T22:12:37.097Z,14.9
2023-03-13T22:17:37.095Z,14.8
2023-03-13T22:22:37.131Z,14.8
2023-03-13T22:27:37.105Z,14.8
2023-03-13T22:32:37.146Z,14.7
2023-03-13T22:37:37.092Z,14.7
2023-03-13T22:42:37.096Z,14.7
2023-03-13T22:47:37.173Z,14.7
2023-03-13T22:52:37.092Z,14.7
2023-03-13T22:57:37.070Z,14.7
2023-03-13T23:02:37.086Z,14.6
2023-03-13T23:07:37.138Z,14.6
2023-03-13T23:12:37.069Z,14.6
2023-03-13T23:17:37.071Z,14.6
2023-03-13T23:22:37.080Z,14.6
2023-03-13T23:27:37.107Z,14.6
2023-03-13T23:32:37.130Z,14.6
2023-03-13T23:37:37.074Z,14.6
2023-03-13T23:42:37.067Z,14.6
2023-03-13T23:47:37.156Z,14.5
2023-03-13T23:52:37.059Z,14.5
2023-03-13T23:57:37.060Z,14.4
